createdAt,value
2023-03-11T00:02:14.893Z,98737.88
2023-03-11T00:04:41.318Z,98749.84
2023-03-11T00:07:09.181Z,98752.41
2023-03-11T00:09:35.980Z,98788.16
2023-03-11T00:12:03.120Z,98774.44
2023-03-11T00:14:29.872Z,98789.81
2023-03-11T00:16:56.383Z,98788.28
2023-03-11T00:19:22.842Z,98815.44
2023-03-11T00:21:49.364Z,98830.75
2023-03-11T00:24:15.784Z,98834.13
2023-03-11T00:26:42.304Z,98841.59
2023-03-11T00:29:08.729Z,98864.75
2023-03-11T00:31:35.154Z,98865.50
2023-03-11T00:34:01.658Z,98865.22
2023-03-11T00:36:33.762Z,98874.63
2023-03-11T00:39:04.345Z,98894.16
2023-03-11T00:41:30.742Z,98912.84
2023-03-11T00:43:57.155Z,98913.72
2023-03-11T00:46:23.613Z,98924.91
2023-03-11T00:48:51.106Z,98933.50
2023-03-11T00:51:18.822Z,98947.22
2023-03-11T00:53:45.825Z,98941.09
2023-03-11T00:56:14.169Z,98951.31
2023-03-11T00:58:41.228Z,98971.75
2023-03-11T01:01:16.435Z,98981.09
2023-03-11T01:03:43.794Z,98979.47
2023-03-11T01:06:10.356Z,98993.13
2023-03-11T01:08:37.077Z,99005.00
2023-03-11T01:11:05.152Z,99010.81
2023-03-11T01:13:31.865Z,99014.34
2023-03-11T01:15:58.525Z,99020.25
2023-03-11T01:18:25.773Z,99024.41
2023-03-11T01:20:52.987Z,99040.53
2023-03-11T01:23:19.828Z,99052.47
2023-03-11T01:25:46.235Z,99063.50
2023-03-11T01:28:12.899Z,99074.66
2023-03-11T01:30:41.418Z,99081.44
2023-03-11T01:33:09.183Z,99093.06
2023-03-11T01:35:35.617Z,99106.78
2023-03-11T01:38:02.080Z,99115.38
2023-03-11T01:40:35.829Z,99108.44
2023-03-11T01:43:03.776Z,99113.47
2023-03-11T01:45:41.493Z,99116.91
2023-03-11T01:48:09.555Z,99118.59
2023-03-11T01:50:40.268Z,99121.16
2023-03-11T01:53:07.366Z,99138.22
2023-03-11T01:55:34.970Z,99143.19
2023-03-11T01:58:04.023Z,99146.75
2023-03-11T02:00:30.488Z,99162.00
2023-03-11T02:02:58.988Z,99184.91
2023-03-11T02:05:25.954Z,99187.47
2023-03-11T02:07:53.985Z,99190.75
2023-03-11T02:10:21.527Z,99200.94
2023-03-11T02:12:49.110Z,99218.25
2023-03-11T02:15:15.606Z,99213.00
2023-03-11T02:17:43.029Z,99239.41
2023-03-11T02:20:19.931Z,99225.69
2023-03-11T02:22:47.224Z,99240.84
2023-03-11T02:25:31.331Z,99254.72
2023-03-11T02:27:58.941Z,99256.47
2023-03-11T02:30:26.380Z,99276.75
2023-03-11T02:32:53.473Z,99279.31
2023-03-11T02:35:21.740Z,99280.09
2023-03-11T02:37:50.111Z,99290.47
2023-03-11T02:40:27.213Z,99295.56
2023-03-11T02:42:56.693Z,99299.16
2023-03-11T02:45:25.915Z,99316.16
2023-03-11T02:47:54.828Z,99315.91
2023-03-11T02:50:21.660Z,99335.63
2023-03-11T02:52:49.407Z,99333.88
2023-03-11T02:55:18.006Z,99340.72
2023-03-11T02:57:44.807Z,99345.84
2023-03-11T03:00:14.772Z,99356.19
2023-03-11T03:02:42.188Z,99360.59
2023-03-11T03:05:08.713Z,99358.28
2023-03-11T03:07:35.144Z,99366.03
2023-03-11T03:10:01.628Z,99382.88
2023-03-11T03:12:28.041Z,99378.53
2023-03-11T03:14:54.490Z,99386.84
2023-03-11T03:17:20.937Z,99387.66
2023-03-11T03:19:47.394Z,99411.44
2023-03-11T03:22:13.926Z,99398.66
2023-03-11T03:24:40.525Z,99407.19
2023-03-11T03:27:07.205Z,99415.72
2023-03-11T03:29:33.632Z,99423.56
2023-03-11T03:32:00.123Z,99430.53
2023-03-11T03:34:26.574Z,99436.50
2023-03-11T03:36:52.968Z,99446.00
2023-03-11T03:39:19.970Z,99448.63
2023-03-11T03:41:46.446Z,99452.00
2023-03-11T03:44:12.855Z,99467.31
2023-03-11T03:46:39.529Z,99459.66
2023-03-11T03:49:05.938Z,99463.97
2023-03-11T03:51:32.354Z,99474.25
2023-03-11T03:53:58.790Z,99476.72
2023-03-11T03:56:25.234Z,99485.19
2023-03-11T03:58:51.658Z,99496.38
2023-03-11T04:01:18.088Z,99496.53
2023-03-11T04:03:44.662Z,99499.88
2023-03-11T04:06:21.382Z,99508.97
2023-03-11T04:08:51.212Z,99518.38
2023-03-11T04:11:17.870Z,99520.16
2023-03-11T04:13:44.750Z,99520.47
2023-03-11T04:16:17.252Z,99533.88
2023-03-11T04:18:43.712Z,99527.16
2023-03-11T04:21:10.163Z,99528.94
2023-03-11T04:23:36.745Z,99538.44
2023-03-11T04:26:03.894Z,99542.66
2023-03-11T04:28:30.352Z,99544.34
2023-03-11T04:30:56.822Z,99554.31
2023-03-11T04:33:23.261Z,99547.38
2023-03-11T04:35:49.757Z,99556.88
2023-03-11T04:38:16.230Z,99563.66
2023-03-11T04:40:42.647Z,99568.03
2023-03-11T04:43:09.064Z,99573.16
2023-03-11T04:45:39.576Z,99567.25
2023-03-11T04:48:06.226Z,99579.78
2023-03-11T04:50:32.685Z,99579.84
2023-03-11T04:52:59.129Z,99580.72
2023-03-11T04:55:25.688Z,99582.31
2023-03-11T04:57:52.216Z,99585.84
2023-03-11T05:00:22.937Z,99593.59
2023-03-11T05:02:49.370Z,99580.97
2023-03-11T05:05:16.603Z,99595.41
2023-03-11T05:07:43.047Z,99604.75
2023-03-11T05:10:10.017Z,99605.72
2023-03-11T05:12:36.488Z,99599.66
2023-03-11T05:15:02.922Z,99602.41
2023-03-11T05:17:29.380Z,99601.84
2023-03-11T05:19:55.838Z,99612.06
2023-03-11T05:22:22.457Z,99612.06
2023-03-11T05:24:48.885Z,99612.78
2023-03-11T05:27:19.751Z,99617.97
2023-03-11T05:29:46.834Z,99623.00
2023-03-11T05:32:13.671Z,99621.25
2023-03-11T05:34:40.614Z,99635.59
2023-03-11T05:37:07.654Z,99649.44
2023-03-11T05:39:34.691Z,99655.25
2023-03-11T05:42:01.103Z,99659.47
2023-03-11T05:44:27.775Z,99665.63
2023-03-11T05:46:54.245Z,99669.16
2023-03-11T05:49:21.610Z,99681.03
2023-03-11T05:51:48.961Z,99691.00
2023-03-11T05:54:15.474Z,99698.75
2023-03-11T05:56:43.491Z,99702.91
2023-03-11T05:59:10.562Z,99698.56
2023-03-11T06:01:37.009Z,99711.53
2023-03-11T06:04:03.687Z,99729.22
2023-03-11T06:06:30.641Z,99722.47
2023-03-11T06:08:57.065Z,99722.47
2023-03-11T06:11:26.906Z,99720.78
2023-03-11T06:13:57.890Z,99723.50
2023-03-11T06:16:25.132Z,99729.34
2023-03-11T06:18:52.225Z,99737.97
2023-03-11T06:21:23.659Z,99737.97
2023-03-11T06:23:50.523Z,99735.41
2023-03-11T06:26:20.168Z,99744.19
2023-03-11T06:28:47.403Z,99742.78
2023-03-11T06:31:19.537Z,99765.59
2023-03-11T06:33:46.619Z,99765.69
2023-03-11T06:36:14.493Z,99768.53
2023-03-11T06:38:41.307Z,99760.06
2023-03-11T06:41:08.070Z,99762.09
2023-03-11T06:43:35.036Z,99778.38
2023-03-11T06:46:02.116Z,99791.16
2023-03-11T06:48:28.659Z,99794.50
2023-03-11T06:50:59.536Z,99799.72
2023-03-11T06:53:27.317Z,99807.66
2023-03-11T06:56:06.252Z,99804.81
2023-03-11T06:58:33.474Z,99808.47
2023-03-11T07:01:01.327Z,99807.47
2023-03-11T07:03:27.909Z,99815.75
2023-03-11T07:05:54.320Z,99822.81
2023-03-11T07:08:20.756Z,99820.69
2023-03-11T07:10:48.306Z,99827.94
2023-03-11T07:13:15.009Z,99829.06
2023-03-11T07:15:41.777Z,99828.19
2023-03-11T07:18:08.189Z,99836.56
2023-03-11T07:20:34.605Z,99828.16
2023-03-11T07:23:01.015Z,99832.28
2023-03-11T07:25:27.438Z,99843.72
2023-03-11T07:27:53.852Z,99852.00
2023-03-11T07:30:20.682Z,99847.25
2023-03-11T07:32:47.220Z,99859.25
2023-03-11T07:35:14.018Z,99868.84
2023-03-11T07:37:40.519Z,99880.69
2023-03-11T07:40:07.628Z,99879.72
2023-03-11T07:42:34.794Z,99887.47
2023-03-11T07:45:01.239Z,99891.09
2023-03-11T07:47:27.663Z,99893.31
2023-03-11T07:49:56.304Z,99897.81
2023-03-11T07:52:23.592Z,99899.69
2023-03-11T07:54:50.076Z,99901.09
2023-03-11T07:57:17.411Z,99913.31
2023-03-11T07:59:44.044Z,99930.56
2023-03-11T08:02:11.054Z,99925.25
2023-03-11T08:04:37.506Z,99918.69
2023-03-11T08:07:04.047Z,99935.44
2023-03-11T08:09:30.453Z,99945.38
2023-03-11T08:11:56.942Z,99957.00
2023-03-11T08:14:23.390Z,99952.59
2023-03-11T08:16:49.798Z,99960.34
2023-03-11T08:19:16.192Z,99965.56
2023-03-11T08:21:42.610Z,99977.59
2023-03-11T08:24:11.134Z,99973.44
2023-03-11T08:26:37.575Z,99977.69
2023-03-11T08:29:04.353Z,99992.56
2023-03-11T08:31:32.571Z,99984.41
2023-03-11T08:34:04.751Z,99996.81
2023-03-11T08:36:31.918Z,99990.19
2023-03-11T08:38:58.615Z,99997.72
2023-03-11T08:41:25.750Z,100011.56
2023-03-11T08:43:52.369Z,100003.97
2023-03-11T08:46:30.187Z,100011.75
2023-03-11T08:49:00.778Z,100018.44
2023-03-11T08:51:28.611Z,100032.31
2023-03-11T08:53:55.090Z,100024.34
2023-03-11T08:56:21.613Z,100038.56
2023-03-11T08:58:48.944Z,100041.13
2023-03-11T09:01:15.366Z,100040.41
2023-03-11T09:03:41.827Z,100047.41
2023-03-11T09:06:11.854Z,100043.84
2023-03-11T09:08:38.410Z,100044.06
2023-03-11T09:11:05.620Z,100052.88
2023-03-11T09:13:32.960Z,100055.09
2023-03-11T09:15:59.421Z,100051.19
2023-03-11T09:18:25.869Z,100059.47
2023-03-11T09:20:52.347Z,100072.63
2023-03-11T09:23:18.822Z,100067.16
2023-03-11T09:25:45.263Z,100078.34
2023-03-11T09:28:11.708Z,100086.00
2023-03-11T09:30:38.184Z,100073.97
2023-03-11T09:33:04.746Z,100084.31
2023-03-11T09:35:31.174Z,100100.53
2023-03-11T09:37:57.665Z,100094.94
2023-03-11T09:40:26.311Z,100097.06
2023-03-11T09:43:11.733Z,100102.75
2023-03-11T09:45:43.959Z,100111.09
2023-03-11T09:48:49.221Z,100116.66
2023-03-11T09:51:24.197Z,100122.91
2023-03-11T09:53:55.232Z,100117.50
2023-03-11T09:56:22.269Z,100132.09
2023-03-11T09:58:51.090Z,100135.56
2023-03-11T10:01:27.569Z,100146.34
2023-03-11T10:04:04.950Z,100146.56
2023-03-11T10:06:31.619Z,100141.78
2023-03-11T10:09:07.361Z,100149.56
2023-03-11T10:12:04.574Z,100149.88
2023-03-11T10:15:09.385Z,100144.28
2023-03-11T10:17:49.696Z,100143.72
2023-03-11T10:20:22.946Z,100144.22
2023-03-11T10:23:20.229Z,100148.25
2023-03-11T10:25:58.572Z,100145.00
2023-03-11T10:28:31.880Z,100144.13
2023-03-11T10:31:05.201Z,100150.31
2023-03-11T10:33:42.459Z,100147.81
2023-03-11T10:36:17.310Z,100154.75
2023-03-11T10:38:48.982Z,100171.66
2023-03-11T10:41:23.570Z,100170.31
2023-03-11T10:43:59.864Z,100158.28
2023-03-11T10:46:28.159Z,100164.38
2023-03-11T10:48:54.705Z,100174.00
2023-03-11T10:51:28.155Z,100163.50
2023-03-11T10:53:57.132Z,100176.72
2023-03-11T10:56:36.561Z,100173.59
2023-03-11T10:59:05.138Z,100183.53
2023-03-11T11:01:32.225Z,100180.50
2023-03-11T11:04:01.042Z,100189.38
2023-03-11T11:06:37.424Z,100189.31
2023-03-11T11:09:06.412Z,100185.28
2023-03-11T11:11:35.635Z,100194.25
2023-03-11T11:14:02.278Z,100189.44
2023-03-11T11:16:29.344Z,100191.53
2023-03-11T11:19:02.984Z,100197.63
2023-03-11T11:21:33.295Z,100191.59
2023-03-11T11:24:09.553Z,100195.69
2023-03-11T11:26:36.070Z,100195.84
2023-03-11T11:29:09.962Z,100196.66
2023-03-11T11:31:43.673Z,100205.81
2023-03-11T11:34:34.247Z,100205.84
2023-03-11T11:37:03.426Z,100204.88
2023-03-11T11:39:51.490Z,100197.50
2023-03-11T11:42:19.697Z,100204.34
2023-03-11T11:44:50.452Z,100198.94
2023-03-11T11:47:25.463Z,100209.84
2023-03-11T11:49:57.425Z,100196.22
2023-03-11T11:52:35.082Z,100202.63
2023-03-11T11:55:27.859Z,100212.28
2023-03-11T11:57:54.424Z,100210.34
2023-03-11T12:00:29.853Z,100208.19
2023-03-11T12:03:16.062Z,100214.03
2023-03-11T12:05:48.824Z,100212.44
2023-03-11T12:08:26.868Z,100214.34
2023-03-11T12:10:58.637Z,100212.66
2023-03-11T12:13:44.668Z,100215.72
2023-03-11T12:16:43.136Z,100213.44
2023-03-11T12:19:10.195Z,100217.06
2023-03-11T12:22:08.953Z,100224.38
2023-03-11T12:25:00.505Z,100218.66
2023-03-11T12:27:30.846Z,100218.66
2023-03-11T12:30:04.533Z,100217.84
2023-03-11T12:32:41.945Z,100215.00
2023-03-11T12:35:21.423Z,100217.88
2023-03-11T12:37:56.652Z,100215.94
2023-03-11T12:40:41.928Z,100221.38
2023-03-11T12:43:24.558Z,100237.88
2023-03-11T12:45:52.321Z,100233.69
2023-03-11T12:48:50.119Z,100239.34
2023-03-11T12:51:33.654Z,100232.75
2023-03-11T12:54:21.513Z,100246.66
2023-03-11T12:56:55.568Z,100231.81
2023-03-11T12:59:51.853Z,100226.47
2023-03-11T13:02:39.364Z,100223.16
2023-03-11T13:05:43.552Z,100226.13
2023-03-11T13:08:17.433Z,100234.03
2023-03-11T13:10:44.778Z,100233.69
2023-03-11T13:13:23.440Z,100241.66
2023-03-11T13:15:50.233Z,100235.38
2023-03-11T13:18:24.831Z,100242.19
2023-03-11T13:20:56.309Z,100248.28
2023-03-11T13:23:29.464Z,100259.34
2023-03-11T13:26:14.514Z,100246.81
2023-03-11T13:28:59.635Z,100251.03
2023-03-11T13:31:50.293Z,100250.56
2023-03-11T13:34:26.850Z,100252.03
2023-03-11T13:37:27.664Z,100259.09
2023-03-11T13:40:15.815Z,100256.28
2023-03-11T13:42:54.292Z,100264.22
2023-03-11T13:45:31.956Z,100257.16
2023-03-11T13:48:20.898Z,100265.50
2023-03-11T13:50:55.235Z,100266.47
2023-03-11T13:53:25.919Z,100265.69
2023-03-11T13:55:52.728Z,100269.56
2023-03-11T13:58:25.275Z,100273.91
2023-03-11T14:00:57.182Z,100280.91
2023-03-11T14:03:25.509Z,100277.38
2023-03-11T14:06:08.051Z,100282.13
2023-03-11T14:08:36.588Z,100277.00
2023-03-11T14:11:11.949Z,100294.31
2023-03-11T14:13:46.400Z,100284.28
2023-03-11T14:16:21.586Z,100287.25
2023-03-11T14:19:04.552Z,100294.16
2023-03-11T14:21:31.806Z,100296.09
2023-03-11T14:23:58.240Z,100292.06
2023-03-11T14:26:29.120Z,100298.00
2023-03-11T14:28:58.851Z,100307.25
2023-03-11T14:31:39.453Z,100303.88
2023-03-11T14:34:17.705Z,100320.91
2023-03-11T14:36:54.093Z,100307.47
2023-03-11T14:39:29.802Z,100301.44
2023-03-11T14:42:00.045Z,100305.97
2023-03-11T14:44:27.758Z,100299.94
2023-03-11T14:46:59.950Z,100309.66
2023-03-11T14:49:26.623Z,100309.91
2023-03-11T14:52:00.497Z,100310.06
2023-03-11T14:54:29.728Z,100321.41
2023-03-11T14:57:08.073Z,100317.31
2023-03-11T14:59:35.008Z,100310.84
2023-03-11T15:02:22.496Z,100317.88
2023-03-11T15:04:49.141Z,100303.00
2023-03-11T15:07:20.123Z,100319.28
2023-03-11T15:09:47.101Z,100309.50
2023-03-11T15:12:33.477Z,100316.88
2023-03-11T15:14:59.973Z,100326.91
2023-03-11T15:17:38.391Z,100320.88
2023-03-11T15:20:26.743Z,100321.53
2023-03-11T15:23:00.997Z,100320.66
2023-03-11T15:25:33.371Z,100317.28
2023-03-11T15:28:14.314Z,100320.66
2023-03-11T15:30:41.067Z,100325.78
2023-03-11T15:33:23.576Z,100325.59
2023-03-11T15:35:50.394Z,100333.06
2023-03-11T15:38:25.484Z,100326.81
2023-03-11T15:41:02.218Z,100326.38
2023-03-11T15:43:35.236Z,100332.38
2023-03-11T15:46:03.095Z,100335.91
2023-03-11T15:48:31.139Z,100339.19
2023-03-11T15:50:59.074Z,100333.25
2023-03-11T15:53:27.427Z,100341.06
2023-03-11T15:55:55.080Z,100340.66
2023-03-11T15:58:21.647Z,100346.81
2023-03-11T16:00:56.611Z,100345.94
2023-03-11T16:03:23.785Z,100343.53
2023-03-11T16:05:50.574Z,100351.25
2023-03-11T16:08:17.244Z,100348.50
2023-03-11T16:10:43.764Z,100352.59
2023-03-11T16:13:13.127Z,100349.03
2023-03-11T16:15:39.789Z,100355.69
2023-03-11T16:18:10.125Z,100354.88
2023-03-11T16:20:45.353Z,100356.66
2023-03-11T16:23:17.409Z,100353.91
2023-03-11T16:25:44.383Z,100363.06
2023-03-11T16:28:14.072Z,100364.91
2023-03-11T16:30:40.546Z,100362.50
2023-03-11T16:33:07.358Z,100364.03
2023-03-11T16:35:34.145Z,100369.06
2023-03-11T16:38:00.825Z,100376.69
2023-03-11T16:40:28.375Z,100373.31
2023-03-11T16:42:58.386Z,100368.03
2023-03-11T16:45:24.961Z,100374.66
2023-03-11T16:47:51.422Z,100376.16
2023-03-11T16:50:17.933Z,100378.47
2023-03-11T16:52:44.400Z,100386.09
2023-03-11T16:55:10.898Z,100385.81
2023-03-11T16:57:38.807Z,100384.66
2023-03-11T17:00:06.991Z,100392.28
2023-03-11T17:02:33.546Z,100392.88
2023-03-11T17:05:00.073Z,100395.91
2023-03-11T17:07:26.994Z,100397.13
2023-03-11T17:09:53.445Z,100402.00
2023-03-11T17:12:19.918Z,100408.44
2023-03-11T17:14:46.373Z,100410.72
2023-03-11T17:17:12.914Z,100416.28
2023-03-11T17:19:39.522Z,100411.56
2023-03-11T17:22:06.029Z,100409.53
2023-03-11T17:24:32.788Z,100419.41
2023-03-11T17:26:59.350Z,100419.03
2023-03-11T17:29:25.813Z,100422.22
2023-03-11T17:31:52.380Z,100427.94
2023-03-11T17:34:18.940Z,100432.78
2023-03-11T17:36:45.429Z,100425.72
2023-03-11T17:39:11.924Z,100426.19
2023-03-11T17:41:38.412Z,100436.97
2023-03-11T17:44:05.217Z,100435.91
2023-03-11T17:46:31.812Z,100437.34
2023-03-11T17:48:58.283Z,100437.06
2023-03-11T17:51:26.214Z,100439.34
2023-03-11T17:53:56.045Z,100436.47
2023-03-11T17:56:22.585Z,100446.53
2023-03-11T17:58:50.521Z,100445.56
2023-03-11T18:01:20.469Z,100447.72
2023-03-11T18:03:47.364Z,100450.19
2023-03-11T18:06:14.514Z,100450.00
2023-03-11T18:08:41.101Z,100445.56
2023-03-11T18:11:10.182Z,100451.47
2023-03-11T18:13:37.601Z,100441.16
2023-03-11T18:16:06.966Z,100446.97
2023-03-11T18:18:34.625Z,100447.63
2023-03-11T18:21:03.518Z,100447.44
2023-03-11T18:23:33.048Z,100450.69
2023-03-11T18:26:01.872Z,100447.94
2023-03-11T18:28:28.786Z,100450.50
2023-03-11T18:30:55.348Z,100454.41
2023-03-11T18:33:23.480Z,100456.00
2023-03-11T18:35:50.248Z,100455.91
2023-03-11T18:38:16.841Z,100448.91
2023-03-11T18:40:44.292Z,100454.63
2023-03-11T18:43:13.411Z,100451.84
2023-03-11T18:45:39.898Z,100446.72
2023-03-11T18:48:06.607Z,100450.66
2023-03-11T18:50:33.080Z,100459.31
2023-03-11T18:53:00.100Z,100465.22
2023-03-11T18:55:26.582Z,100459.22
2023-03-11T18:57:53.275Z,100463.25
2023-03-11T19:00:23.567Z,100462.38
2023-03-11T19:02:53.709Z,100457.94
2023-03-11T19:05:21.029Z,100466.19
2023-03-11T19:07:47.638Z,100472.00
2023-03-11T19:10:15.402Z,100477.09
2023-03-11T19:12:44.394Z,100481.94
2023-03-11T19:15:11.646Z,100480.25
2023-03-11T19:17:38.198Z,100480.94
2023-03-11T19:20:08.839Z,100482.53
2023-03-11T19:22:36.411Z,100478.16
2023-03-11T19:25:04.436Z,100491.63
2023-03-11T19:27:31.960Z,100482.88
2023-03-11T19:29:58.533Z,100491.53
2023-03-11T19:32:25.101Z,100487.00
2023-03-11T19:34:51.605Z,100488.59
2023-03-11T19:37:18.080Z,100491.78
2023-03-11T19:39:44.629Z,100490.81
2023-03-11T19:42:11.173Z,100485.50
2023-03-11T19:44:37.736Z,100488.72
2023-03-11T19:47:04.313Z,100485.09
2023-03-11T19:49:30.889Z,100490.84
2023-03-11T19:51:57.413Z,100495.06
2023-03-11T19:54:23.962Z,100490.84
2023-03-11T19:56:50.554Z,100489.09
2023-03-11T19:59:17.316Z,100488.88
2023-03-11T20:01:43.930Z,100503.34
2023-03-11T20:04:10.788Z,100502.44
2023-03-11T20:06:37.563Z,100496.25
2023-03-11T20:09:05.916Z,100495.25
2023-03-11T20:11:32.537Z,100494.38
2023-03-11T20:13:59.040Z,100498.59
2023-03-11T20:16:25.759Z,100495.81
2023-03-11T20:18:52.341Z,100503.47
2023-03-11T20:21:18.863Z,100496.47
2023-03-11T20:23:45.393Z,100502.38
2023-03-11T20:26:14.255Z,100493.81
2023-03-11T20:28:41.279Z,100505.72
2023-03-11T20:31:28.137Z,100502.06
2023-03-11T20:33:55.682Z,100507.09
2023-03-11T20:36:25.181Z,100503.66
2023-03-11T20:38:53.644Z,100516.19
2023-03-11T20:41:20.653Z,100521.19
2023-03-11T20:43:47.116Z,100520.31
2023-03-11T20:46:13.835Z,100514.09
2023-03-11T20:48:40.775Z,100505.44
2023-03-11T20:51:11.671Z,100517.22
2023-03-11T20:53:38.579Z,100511.66
2023-03-11T20:56:10.454Z,100521.69
2023-03-11T20:58:38.549Z,100506.16
2023-03-11T21:01:34.642Z,100504.16
2023-03-11T21:04:03.161Z,100509.03
2023-03-11T21:06:32.260Z,100519.03
2023-03-11T21:09:00.605Z,100513.94
2023-03-11T21:11:27.828Z,100514.94
2023-03-11T21:13:54.843Z,100516.50
2023-03-11T21:16:21.581Z,100513.94
2023-03-11T21:18:49.592Z,100512.16
2023-03-11T21:21:17.255Z,100515.50
2023-03-11T21:23:44.421Z,100517.94
2023-03-11T21:26:12.972Z,100525.50
2023-03-11T21:28:40.117Z,100525.81
2023-03-11T21:31:10.845Z,100518.84
2023-03-11T21:33:38.677Z,100510.38
2023-03-11T21:36:06.462Z,100512.16
2023-03-11T21:38:33.657Z,100505.28
2023-03-11T21:41:11.077Z,100498.41
2023-03-11T21:43:38.624Z,100503.50
2023-03-11T21:46:06.733Z,100503.50
2023-03-11T21:48:33.342Z,100509.41
2023-03-11T21:50:59.914Z,100510.06
2023-03-11T21:53:26.347Z,100506.63
2023-03-11T21:55:53.367Z,100502.31
2023-03-11T21:58:20.256Z,100499.50
2023-03-11T22:00:46.741Z,100507.28
2023-03-11T22:03:13.289Z,100506.38
2023-03-11T22:05:39.866Z,100507.41
2023-03-11T22:08:06.396Z,100503.63
2023-03-11T22:10:32.853Z,100511.28
2023-03-11T22:12:59.394Z,100499.28
2023-03-11T22:15:25.930Z,100513.84
2023-03-11T22:17:52.488Z,100508.72
2023-03-11T22:20:19.050Z,100511.97
2023-03-11T22:22:45.496Z,100514.41
2023-03-11T22:25:11.914Z,100503.19
2023-03-11T22:27:40.652Z,100511.66
2023-03-11T22:30:07.878Z,100508.84
2023-03-11T22:32:34.804Z,100508.84
2023-03-11T22:35:01.283Z,100511.28
2023-03-11T22:37:28.041Z,100517.19
2023-03-11T22:39:54.460Z,100516.19
2023-03-11T22:42:20.884Z,100520.41
2023-03-11T22:44:47.295Z,100518.63
2023-03-11T22:47:13.738Z,100517.84
2023-03-11T22:49:40.192Z,100511.75
2023-03-11T22:52:06.622Z,100515.28
2023-03-11T22:54:33.096Z,100516.84
2023-03-11T22:56:59.529Z,100513.31
2023-03-11T22:59:30.521Z,100513.53
2023-03-11T23:01:56.991Z,100510.19
2023-03-11T23:04:23.486Z,100511.75
2023-03-11T23:06:49.988Z,100522.97
2023-03-11T23:09:16.416Z,100514.41
2023-03-11T23:11:42.866Z,100521.97
2023-03-11T23:14:09.275Z,100519.53
2023-03-11T23:16:35.703Z,100523.06
2023-03-11T23:19:02.143Z,100521.50
2023-03-11T23:21:31.454Z,100520.50
2023-03-11T23:24:00.062Z,100520.50
2023-03-11T23:26:27.233Z,100525.63
2023-03-11T23:28:54.084Z,100527.97
2023-03-11T23:31:22.334Z,100521.97
2023-03-11T23:33:49.156Z,100530.41
2023-03-11T23:36:19.675Z,100526.59
2023-03-11T23:38:46.645Z,100533.28
2023-03-11T23:41:16.241Z,100528.06
2023-03-11T23:43:42.972Z,100524.19
2023-03-11T23:46:10.384Z,100527.41
2023-03-11T23:48:37.762Z,100526.38
2023-03-11T23:51:04.780Z,100527.94
2023-03-11T23:53:32.222Z,100524.59
2023-03-11T23:55:58.814Z,100529.50
2023-03-11T23:58:25.343Z,100525.16
